HISTORICAL SENSOR DATA

Sensor Data Report

DB LIVE
CURRENT TIME--:--:--
DEVICE NETWORK Gateway Status
13 ESP · realtime ~1s · history 60s
Weather WS-MOD-01
ONLINE
Actuator ACT-MOD-01
OFFLINE
Mainboard L3 MB-L3-01
ONLINE
Mainboard L5 MB-L5-01
ONLINE
Remote AC AC-REMOTE-01
ONLINE
PZEM L3-01 PWR-L3-01
OFFLINE
PZEM L3-02 PWR-L3-02
OFFLINE
PZEM L3-03 PWR-L3-03
OFFLINE
PZEM L3-04 PWR-L3-04
OFFLINE
PZEM L5-01 PWR-L5-01
ONLINE
PZEM L5-02 PWR-L5-02
ONLINE
PZEM L5-03 PWR-L5-03
OFFLINE
PZEM L5-04 PWR-L5-04
OFFLINE
REPORT FILTER

Periode & Sensor

DATABASE HISTORY
RESET
QUICK RANGE Hari ini 7 hari 30 hari
PERIODE02 Sep 2026sampai 02 Sep 2026
TOTAL DATA40,278sensor readings
MINIMUM-0.50sesuai filter
AVERAGE56.78sesuai filter
MAXIMUM998.00sesuai filter
REPORT RESULT

Data Sensor

02/09/2026 — 02/09/2026 EXPORT CSV
NOTANGGALWAKTUDEVICECHANNELSENSORVALUEUNIT
12901 02/09/2026 14:54:05 MB-L3-01Mainboard Lantai 3 L3-ST-01 Surface Temperature 1 29.90 °C
12902 02/09/2026 14:54:05 MB-L3-01Mainboard Lantai 3 L3-AI-05 Analog Input 5 3.12 V
12903 02/09/2026 14:54:05 MB-L3-01Mainboard Lantai 3 L3-SHT-03-T SHT20 3 Temperature 31.80 °C
12904 02/09/2026 14:54:05 MB-L5-01Mainboard Lantai 5 L5-RAD-01 Radiation 1 2.00 W/m²
12905 02/09/2026 14:54:05 MB-L5-01Mainboard Lantai 5 L5-AI-03 Analog Input 3 3.05 V
12906 02/09/2026 14:54:05 MB-L3-01Mainboard Lantai 3 L3-SHT-02-T SHT20 2 Temperature 32.10 °C
12907 02/09/2026 14:54:05 MB-L5-01Mainboard Lantai 5 L5-AI-02 Analog Input 2 3.05 V
12908 02/09/2026 14:54:05 MB-L3-01Mainboard Lantai 3 L3-BGT-03 Black Globe Temperature 3 29.40 °C
12909 02/09/2026 14:54:05 MB-L5-01Mainboard Lantai 5 L5-AI-01 Analog Input 1 3.05 V
12910 02/09/2026 14:54:05 MB-L3-01Mainboard Lantai 3 L3-ST-02 Surface Temperature 2 30.30 °C
12911 02/09/2026 14:54:05 MB-L3-01Mainboard Lantai 3 L3-AI-06 Analog Input 6 3.12 V
12912 02/09/2026 14:54:05 MB-L3-01Mainboard Lantai 3 L3-LUX-06 Illuminance / LUX 6 29.40 lux
12913 02/09/2026 14:54:05 MB-L3-01Mainboard Lantai 3 L3-AI-01 Analog Input 1 3.12 V
12914 02/09/2026 14:54:05 MB-L5-01Mainboard Lantai 5 L5-BGT-03 Black Globe Temperature 3 29.90 °C
12915 02/09/2026 14:54:05 MB-L3-01Mainboard Lantai 3 L3-HFT-01 Heat Flow Temperature 1 29.60 °C
12916 02/09/2026 14:54:05 MB-L5-01Mainboard Lantai 5 L5-LUX-03 Illuminance / LUX 3 192.20 lux
12917 02/09/2026 14:54:05 MB-L5-01Mainboard Lantai 5 L5-BGT-02 Black Globe Temperature 2 29.90 °C
12918 02/09/2026 14:54:05 MB-L5-01Mainboard Lantai 5 L5-BGT-01 Black Globe Temperature 1 30.00 °C
12919 02/09/2026 14:54:05 MB-L3-01Mainboard Lantai 3 L3-LUX-05 Illuminance / LUX 5 53.50 lux
12920 02/09/2026 14:54:05 MB-L3-01Mainboard Lantai 3 L3-AI-02 Analog Input 2 3.12 V
12921 02/09/2026 14:54:05 MB-L3-01Mainboard Lantai 3 L3-LUX-04 Illuminance / LUX 4 101.10 lux
12922 02/09/2026 14:54:05 MB-L5-01Mainboard Lantai 5 L5-HFT-02 Heat Flow Temperature 2 30.10 °C
12923 02/09/2026 14:54:05 MB-L5-01Mainboard Lantai 5 L5-SHT-01-RH SHT20 1 Humidity 48.40 %RH
12924 02/09/2026 14:54:05 MB-L3-01Mainboard Lantai 3 L3-HFT-02 Heat Flow Temperature 2 29.20 °C
12925 02/09/2026 14:54:05 MB-L3-01Mainboard Lantai 3 L3-SHT-01-T SHT20 1 Temperature 32.20 °C
12926 02/09/2026 14:54:05 MB-L5-01Mainboard Lantai 5 L5-HFT-01 Heat Flow Temperature 1 30.30 °C
12927 02/09/2026 14:54:05 MB-L5-01Mainboard Lantai 5 L5-LUX-01 Illuminance / LUX 1 265.00 lux
12928 02/09/2026 14:54:05 MB-L5-01Mainboard Lantai 5 L5-LUX-06 Illuminance / LUX 6 261.20 lux
12929 02/09/2026 14:54:05 MB-L5-01Mainboard Lantai 5 L5-ST-02 Surface Temperature 2 30.50 °C
12930 02/09/2026 14:54:05 MB-L3-01Mainboard Lantai 3 L3-LUX-02 Illuminance / LUX 2 49.60 lux
12931 02/09/2026 14:54:05 MB-L5-01Mainboard Lantai 5 L5-LUX-05 Illuminance / LUX 5 522.20 lux
12932 02/09/2026 14:54:05 MB-L3-01Mainboard Lantai 3 L3-SHT-01-RH SHT20 1 Humidity 48.40 %RH
12933 02/09/2026 14:54:05 MB-L3-01Mainboard Lantai 3 L3-AI-03 Analog Input 3 3.12 V
12934 02/09/2026 14:54:05 MB-L5-01Mainboard Lantai 5 L5-LUX-02 Illuminance / LUX 2 254.20 lux
12935 02/09/2026 14:54:05 MB-L5-01Mainboard Lantai 5 L5-ST-01 Surface Temperature 1 30.30 °C
12936 02/09/2026 14:54:04 MB-L5-01Mainboard Lantai 5 L5-SHT-02-T SHT20 2 Temperature 32.20 °C
12937 02/09/2026 14:54:04 MB-L5-01Mainboard Lantai 5 L5-SHT-03-RH SHT20 3 Humidity 48.60 %RH
12938 02/09/2026 14:54:04 MB-L5-01Mainboard Lantai 5 L5-AI-04 Analog Input 4 3.05 V
12939 02/09/2026 14:54:04 MB-L5-01Mainboard Lantai 5 L5-RAD-01 Radiation 1 2.00 W/m²
12940 02/09/2026 14:54:04 MB-L5-01Mainboard Lantai 5 L5-AI-03 Analog Input 3 3.05 V
12941 02/09/2026 14:54:04 MB-L5-01Mainboard Lantai 5 L5-AI-02 Analog Input 2 3.05 V
12942 02/09/2026 14:54:04 MB-L5-01Mainboard Lantai 5 L5-AI-01 Analog Input 1 3.05 V
12943 02/09/2026 14:54:04 MB-L5-01Mainboard Lantai 5 L5-BGT-03 Black Globe Temperature 3 29.90 °C
12944 02/09/2026 14:54:04 MB-L5-01Mainboard Lantai 5 L5-LUX-03 Illuminance / LUX 3 170.30 lux
12945 02/09/2026 14:54:04 MB-L5-01Mainboard Lantai 5 L5-BGT-02 Black Globe Temperature 2 29.80 °C
12946 02/09/2026 14:54:04 MB-L5-01Mainboard Lantai 5 L5-BGT-01 Black Globe Temperature 1 29.90 °C
12947 02/09/2026 14:54:04 MB-L5-01Mainboard Lantai 5 L5-HFT-02 Heat Flow Temperature 2 30.10 °C
12948 02/09/2026 14:54:04 MB-L5-01Mainboard Lantai 5 L5-SHT-01-RH SHT20 1 Humidity 48.30 %RH
12949 02/09/2026 14:54:04 MB-L5-01Mainboard Lantai 5 L5-HFT-01 Heat Flow Temperature 1 30.20 °C
12950 02/09/2026 14:54:04 MB-L5-01Mainboard Lantai 5 L5-LUX-01 Illuminance / LUX 1 265.10 lux
12951 02/09/2026 14:54:04 MB-L5-01Mainboard Lantai 5 L5-LUX-06 Illuminance / LUX 6 261.20 lux
12952 02/09/2026 14:54:04 MB-L5-01Mainboard Lantai 5 L5-ST-02 Surface Temperature 2 30.40 °C
12953 02/09/2026 14:54:04 MB-L5-01Mainboard Lantai 5 L5-LUX-05 Illuminance / LUX 5 464.40 lux
12954 02/09/2026 14:54:04 MB-L5-01Mainboard Lantai 5 L5-LUX-02 Illuminance / LUX 2 230.60 lux
12955 02/09/2026 14:54:04 MB-L5-01Mainboard Lantai 5 L5-ST-01 Surface Temperature 1 30.30 °C
12956 02/09/2026 14:54:04 MB-L5-01Mainboard Lantai 5 L5-RAD-02 Radiation 2 2.00 W/m²
12957 02/09/2026 14:54:04 MB-L5-01Mainboard Lantai 5 L5-AI-06 Analog Input 6 3.05 V
12958 02/09/2026 14:54:04 MB-L5-01Mainboard Lantai 5 L5-SHT-02-RH SHT20 2 Humidity 48.10 %RH
12959 02/09/2026 14:54:04 MB-L5-01Mainboard Lantai 5 L5-LUX-04 Illuminance / LUX 4 240.90 lux
12960 02/09/2026 14:54:04 MB-L5-01Mainboard Lantai 5 L5-AI-05 Analog Input 5 3.05 V
12961 02/09/2026 14:54:04 MB-L5-01Mainboard Lantai 5 L5-SHT-03-T SHT20 3 Temperature 32.20 °C
12962 02/09/2026 14:54:04 MB-L5-01Mainboard Lantai 5 L5-SHT-01-T SHT20 1 Temperature 32.30 °C
12963 02/09/2026 14:54:03 MB-L3-01Mainboard Lantai 3 L3-ST-01 Surface Temperature 1 29.90 °C
12964 02/09/2026 14:54:03 MB-L3-01Mainboard Lantai 3 L3-AI-05 Analog Input 5 3.12 V
12965 02/09/2026 14:54:03 MB-L3-01Mainboard Lantai 3 L3-SHT-03-T SHT20 3 Temperature 31.80 °C
12966 02/09/2026 14:54:03 MB-L3-01Mainboard Lantai 3 L3-SHT-02-T SHT20 2 Temperature 32.00 °C
12967 02/09/2026 14:54:03 MB-L3-01Mainboard Lantai 3 L3-BGT-03 Black Globe Temperature 3 29.40 °C
12968 02/09/2026 14:54:03 MB-L3-01Mainboard Lantai 3 L3-ST-02 Surface Temperature 2 30.20 °C
12969 02/09/2026 14:54:03 MB-L3-01Mainboard Lantai 3 L3-AI-06 Analog Input 6 3.12 V
12970 02/09/2026 14:54:03 MB-L3-01Mainboard Lantai 3 L3-LUX-06 Illuminance / LUX 6 29.40 lux
12971 02/09/2026 14:54:03 MB-L3-01Mainboard Lantai 3 L3-AI-01 Analog Input 1 3.12 V
12972 02/09/2026 14:54:03 MB-L3-01Mainboard Lantai 3 L3-HFT-01 Heat Flow Temperature 1 29.70 °C
12973 02/09/2026 14:54:03 MB-L3-01Mainboard Lantai 3 L3-LUX-05 Illuminance / LUX 5 53.50 lux
12974 02/09/2026 14:54:03 MB-L3-01Mainboard Lantai 3 L3-AI-02 Analog Input 2 3.12 V
12975 02/09/2026 14:54:03 MB-L3-01Mainboard Lantai 3 L3-LUX-04 Illuminance / LUX 4 81.20 lux
12976 02/09/2026 14:54:03 MB-L3-01Mainboard Lantai 3 L3-HFT-02 Heat Flow Temperature 2 29.20 °C
12977 02/09/2026 14:54:03 MB-L3-01Mainboard Lantai 3 L3-SHT-01-T SHT20 1 Temperature 32.20 °C
12978 02/09/2026 14:54:03 MB-L3-01Mainboard Lantai 3 L3-LUX-02 Illuminance / LUX 2 49.60 lux
12979 02/09/2026 14:54:03 MB-L3-01Mainboard Lantai 3 L3-SHT-01-RH SHT20 1 Humidity 48.30 %RH
12980 02/09/2026 14:54:03 MB-L3-01Mainboard Lantai 3 L3-AI-03 Analog Input 3 3.12 V
12981 02/09/2026 14:54:03 MB-L3-01Mainboard Lantai 3 L3-SHT-02-RH SHT20 2 Humidity 48.30 %RH
12982 02/09/2026 14:54:03 MB-L3-01Mainboard Lantai 3 L3-BGT-01 Black Globe Temperature 1 29.90 °C
12983 02/09/2026 14:54:03 MB-L3-01Mainboard Lantai 3 L3-LUX-01 Illuminance / LUX 1 28.40 lux
12984 02/09/2026 14:54:03 MB-L3-01Mainboard Lantai 3 L3-RAD-02 Radiation 2 2.00 W/m²
12985 02/09/2026 14:54:03 MB-L3-01Mainboard Lantai 3 L3-LUX-03 Illuminance / LUX 3 103.40 lux
12986 02/09/2026 14:54:03 MB-L3-01Mainboard Lantai 3 L3-AI-04 Analog Input 4 3.12 V
12987 02/09/2026 14:54:03 MB-L3-01Mainboard Lantai 3 L3-BGT-02 Black Globe Temperature 2 29.90 °C
12988 02/09/2026 14:54:03 MB-L3-01Mainboard Lantai 3 L3-RAD-01 Radiation 1 2.00 W/m²
12989 02/09/2026 14:54:03 MB-L3-01Mainboard Lantai 3 L3-SHT-03-RH SHT20 3 Humidity 49.10 %RH
12990 02/09/2026 14:54:02 MB-L5-01Mainboard Lantai 5 L5-AI-01 Analog Input 1 3.05 V
12991 02/09/2026 14:54:02 MB-L3-01Mainboard Lantai 3 L3-ST-02 Surface Temperature 2 30.20 °C
12992 02/09/2026 14:54:02 MB-L3-01Mainboard Lantai 3 L3-AI-06 Analog Input 6 3.12 V
12993 02/09/2026 14:54:02 MB-L3-01Mainboard Lantai 3 L3-LUX-06 Illuminance / LUX 6 32.10 lux
12994 02/09/2026 14:54:02 MB-L3-01Mainboard Lantai 3 L3-AI-01 Analog Input 1 3.12 V
12995 02/09/2026 14:54:02 MB-L5-01Mainboard Lantai 5 L5-BGT-03 Black Globe Temperature 3 29.80 °C
12996 02/09/2026 14:54:02 MB-L3-01Mainboard Lantai 3 L3-HFT-01 Heat Flow Temperature 1 29.70 °C
12997 02/09/2026 14:54:02 MB-L5-01Mainboard Lantai 5 L5-LUX-03 Illuminance / LUX 3 156.40 lux
12998 02/09/2026 14:54:02 MB-L5-01Mainboard Lantai 5 L5-BGT-02 Black Globe Temperature 2 29.80 °C
12999 02/09/2026 14:54:02 MB-L5-01Mainboard Lantai 5 L5-BGT-01 Black Globe Temperature 1 29.90 °C
13000 02/09/2026 14:54:02 MB-L3-01Mainboard Lantai 3 L3-LUX-05 Illuminance / LUX 5 43.70 lux
Menampilkan maksimal 100 data per halaman